Alabaster, AL

3:57 AM CDT on October 14, 2019 (GMT -0500)
Shelby County

Weather History for KEET - August, 2019

Change the Weather History Date:

Monday, August 26, 2019

  Actual Average Record
Temperature  
Mean Temperature 75 °F 79 °F  
Max Temperature 79 °F 90 °F 101 °F (2011)
Min Temperature 71 °F 69 °F 50 °F (1966)
Cooling Degree Days 10 14  
Month to date cooling degree days 467 400  
Year to date cooling degree days 1756 1530  
Since 1 June cooling degree days 1359 1261  
Growing Degree Days 25 (Base 50)    
Moisture  
Dew Point 72 °F    
Average Humidity 93    
Maximum Humidity 100    
Minimum Humidity 85    
Precipitation  
Precipitation 0.87 in 0.15 in 2.32 in (1967)
Month to date precipitation 2.10 4.03  
Year to date precipitation 33.38 37.35  
Sea Level Pressure  
Sea Level Pressure 29.94 in    
Wind  
Wind Speed 6 mph (SSE)    
Max Wind Speed 15 mph    
Max Gust Speed 21 mph    
Visibility 7 miles    
Events Rain    
T = Trace of Precipitation, MM = Missing Value Source: NWS Daily Summary

Daily Weather History Graph

Daily Weather History Graph

Search for Another Location

Airport or City:

Astronomy

Aug. 26, 2019 Rise Set
Actual Time 6:17 AM CDT 7:20 PM CDT
Civil Twilight 5:51 AM CDT 7:45 PM CDT
Nautical Twilight 5:21 AM CDT 8:15 PM CDT
Astronomical Twilight 4:50 AM CDT 8:46 PM CDT
Moon 1:52 AM CDT (8/26) 4:31 PM CDT (8/26)
Length of Visible Light 13h 53m
Length of Day
13h 02m
Waning Crescent, 19% of the Moon is Illuminated
Aug 26
Waning Crescent
Aug 30
New
Sep 5
First Quarter
Sep 13
Full
Sep 21
Last Quarter

Hourly Weather History & Observations

Time (CDT) Temp. Dew Point Humidity Pressure Visibility Wind Dir Wind Speed Gust Speed Precip Events Conditions
12:26 AM 72.0 °F 70.0 °F 93% 29.99 in 6.0 mi ESE 5.8 mph - 0.04 in Rain Light Rain
12:50 AM 71.6 °F 69.8 °F 94% 29.98 in 6.0 mi ESE 4.6 mph - 0.05 in Rain Light Rain
12:53 AM 72.0 °F 70.0 °F 93% 29.96 in 6.0 mi Variable 4.6 mph - 0.05 in Rain Light Rain
1:25 AM 72.0 °F 70.0 °F 93% 29.97 in 7.0 mi SE 6.9 mph - 0.00 in Rain Light Rain
1:53 AM 72.0 °F 70.0 °F 93% 29.95 in 7.0 mi SE 9.2 mph - 0.01 in Rain Light Rain
2:00 AM 72.0 °F 70.0 °F 93% 29.96 in 9.0 mi SE 6.9 mph - 0.00 in Rain Light Rain
2:08 AM 72.0 °F 70.0 °F 93% 29.96 in 9.0 mi SE 6.9 mph - 0.00 in   Overcast
2:53 AM 72.0 °F 70.0 °F 93% 29.94 in 9.0 mi SE 8.1 mph - 0.00 in   Overcast
3:53 AM 72.0 °F 69.1 °F 91% 29.94 in 10.0 mi SE 9.2 mph - N/A   Overcast
4:15 AM 72.0 °F 69.1 °F 91% 29.96 in 9.0 mi SE 8.1 mph - N/A   Overcast
4:53 AM 72.0 °F 69.1 °F 91% 29.93 in 9.0 mi Variable 4.6 mph - N/A   Overcast
5:15 AM 72.0 °F 69.1 °F 91% 29.95 in 2.5 mi Variable 5.8 mph - 0.04 in Rain Heavy Rain
5:27 AM 71.1 °F 69.1 °F 93% 29.95 in 4.0 mi SE 5.8 mph - 0.05 in Rain Rain
5:53 AM 72.0 °F 69.1 °F 91% 29.94 in 7.0 mi SE 6.9 mph - 0.06 in Rain Light Rain
6:53 AM 71.1 °F 70.0 °F 96% 29.94 in 1.5 mi SE 6.9 mph - 0.16 in Rain Heavy Rain
7:04 AM 71.1 °F 70.0 °F 96% 29.96 in 3.0 mi SE 8.1 mph - 0.04 in Rain Light Rain
7:14 AM 71.1 °F 70.0 °F 96% 29.96 in 4.0 mi SE 6.9 mph - 0.04 in Rain Light Rain
7:24 AM 72.0 °F 70.0 °F 93% 29.96 in 4.0 mi SE 8.1 mph - 0.05 in Rain Light Rain
7:53 AM 72.0 °F 70.0 °F 93% 29.95 in 4.0 mi SE 6.9 mph 17.3 mph 0.06 in Rain Light Rain
8:53 AM 72.0 °F 70.0 °F 93% 29.96 in 6.0 mi SE 5.8 mph - 0.02 in Rain Light Rain
9:53 AM 73.0 °F 71.1 °F 93% 29.96 in 6.0 mi Variable 5.8 mph - 0.00 in   Overcast
10:04 AM 73.9 °F 71.1 °F 91% 29.97 in 8.0 mi ESE 8.1 mph - N/A   Overcast
10:53 AM 75.9 °F 72.0 °F 87% 29.95 in 10.0 mi ESE 8.1 mph - N/A   Overcast
11:53 AM 77.0 °F 73.0 °F 88% 29.94 in 8.0 mi SSE 8.1 mph - 0.00 in Rain Light Rain
12:25 PM 75.9 °F 73.0 °F 91% 29.96 in 1.5 mi SSE 10.4 mph - 0.03 in Rain Rain
12:35 PM 75.0 °F 73.0 °F 94% 29.96 in 0.8 mi SSE 6.9 mph - 0.11 in Rain Heavy Rain
12:53 PM 75.0 °F 73.0 °F 94% 29.94 in 0.8 mi South 9.2 mph - 0.25 in Rain Heavy Rain
12:55 PM 75.0 °F 73.0 °F 94% 29.96 in 1.0 mi SSE 9.2 mph - 0.00 in Rain Rain
1:03 PM 75.0 °F 73.0 °F 94% 29.96 in 2.0 mi SSE 10.4 mph - 0.01 in Rain Light Rain
1:16 PM 75.9 °F 73.0 °F 91% 29.96 in 3.0 mi SSE 9.2 mph - 0.02 in Rain Light Rain
1:26 PM 75.9 °F 73.0 °F 91% 29.95 in 7.0 mi SSE 6.9 mph - 0.02 in Rain Light Rain
1:53 PM 77.0 °F 73.0 °F 88% 29.92 in 10.0 mi SSE 9.2 mph - 0.02 in   Overcast
2:08 PM 79.0 °F 73.9 °F 84% 29.94 in 10.0 mi SSE 6.9 mph - N/A   Overcast
2:28 PM 78.1 °F 72.0 °F 81% 29.93 in 10.0 mi SSE 10.4 mph - N/A   Overcast
2:46 PM 78.1 °F 73.0 °F 84% 29.93 in 10.0 mi SE 8.1 mph - N/A   Overcast
2:53 PM 78.1 °F 73.0 °F 84% 29.91 in 10.0 mi South 4.6 mph - N/A   Overcast
3:21 PM 75.9 °F 72.0 °F 87% 29.92 in 2.0 mi South 5.8 mph - 0.04 in Rain Heavy Rain
3:41 PM 75.0 °F 73.0 °F 94% 29.92 in 3.0 mi South 3.5 mph - 0.09 in Rain Light Rain
3:46 PM 75.0 °F 73.0 °F 94% 29.92 in 1.8 mi South 3.5 mph - 0.11 in Rain Rain
3:53 PM 75.0 °F 73.0 °F 94% 29.90 in 1.0 mi South 4.6 mph - 0.15 in Rain Heavy Rain
4:21 PM 75.0 °F 73.0 °F 94% 29.91 in 3.0 mi South 4.6 mph - 0.13 in Rain Light Rain
4:29 PM 75.0 °F 73.0 °F 94% 29.91 in 8.0 mi South 4.6 mph - 0.13 in   Overcast
4:50 PM 75.2 °F 73.4 °F 94% 29.91 in 10.0 mi South 3.5 mph - 0.13 in   Overcast
4:53 PM 75.0 °F 73.0 °F 94% 29.89 in 10.0 mi SSE 4.6 mph - 0.13 in   Overcast
5:14 PM 75.9 °F 73.0 °F 91% 29.91 in 10.0 mi SSE 4.6 mph - N/A   Mostly Cloudy
5:22 PM 75.9 °F 73.0 °F 91% 29.91 in 10.0 mi SSE 4.6 mph - N/A   Scattered Clouds
5:53 PM 75.9 °F 73.0 °F 91% 29.90 in 10.0 mi SSE 4.6 mph - N/A   Overcast
6:04 PM 75.9 °F 73.0 °F 91% 29.92 in 10.0 mi ESE 3.5 mph - N/A   Overcast
6:39 PM 75.9 °F 73.0 °F 91% 29.91 in 10.0 mi East 3.5 mph - N/A   Mostly Cloudy
6:46 PM 75.9 °F 73.0 °F 91% 29.91 in 10.0 mi Calm Calm - N/A   Overcast
6:53 PM 75.9 °F 73.0 °F 91% 29.89 in 10.0 mi SE 3.5 mph - N/A   Mostly Cloudy
7:19 PM 75.0 °F 73.0 °F 94% 29.92 in 10.0 mi ESE 3.5 mph - N/A   Overcast
7:53 PM 75.0 °F 73.0 °F 94% 29.91 in 4.0 mi ESE 3.5 mph - 0.00 in Rain Light Rain
8:01 PM 75.0 °F 73.0 °F 94% 29.93 in 9.0 mi SE 3.5 mph - 0.00 in   Overcast
8:08 PM 75.0 °F 73.0 °F 94% 29.93 in 10.0 mi SSE 4.6 mph - 0.00 in   Overcast
8:30 PM 75.0 °F 73.0 °F 94% 29.94 in 8.0 mi SE 3.5 mph - 0.00 in   Overcast
8:53 PM 75.0 °F 73.0 °F 94% 29.93 in 9.0 mi SSE 4.6 mph - 0.00 in   Overcast
9:10 PM 75.0 °F 73.0 °F 94% 29.96 in 5.0 mi SSE 4.6 mph - 0.01 in Rain Light Rain
9:25 PM 73.9 °F 73.0 °F 97% 29.96 in 6.0 mi South 4.6 mph - 0.01 in Rain Light Rain
9:53 PM 73.9 °F 73.0 °F 97% 29.94 in 8.0 mi SE 4.6 mph - 0.01 in   Overcast
10:10 PM 73.9 °F 73.0 °F 97% 29.96 in 9.0 mi SE 5.8 mph - N/A   Overcast
10:24 PM 73.9 °F 72.0 °F 93% 29.96 in 10.0 mi SE 5.8 mph - N/A   Overcast
10:43 PM 73.9 °F 72.0 °F 93% 29.96 in 10.0 mi SSE 6.9 mph - N/A   Overcast
10:53 PM 73.9 °F 72.0 °F 93% 29.94 in 10.0 mi SSE 3.5 mph - N/A   Overcast
11:42 PM 73.9 °F 72.0 °F 93% 29.95 in 10.0 mi SSE 6.9 mph - N/A   Overcast
11:53 PM 73.9 °F 72.0 °F 93% 29.93 in 10.0 mi South 5.8 mph - N/A   Overcast